createdAt,value
2023-02-28T00:03:38.233Z,99090.16
2023-02-28T00:08:40.331Z,99092.13
2023-02-28T00:13:47.374Z,99102.75
2023-02-28T00:18:49.727Z,99091.28
2023-02-28T00:23:51.164Z,99091.47
2023-02-28T00:28:53.749Z,99084.72
2023-02-28T00:33:55.204Z,99084.97
2023-02-28T00:38:56.662Z,99084.31
2023-02-28T00:43:58.069Z,99076.25
2023-02-28T00:48:59.538Z,99083.75
2023-02-28T00:54:00.971Z,99083.00
2023-02-28T00:59:02.467Z,99083.47
2023-02-28T01:04:04.167Z,99073.69
2023-02-28T01:09:07.356Z,99070.47
2023-02-28T01:14:09.521Z,99080.28
2023-02-28T01:19:12.433Z,99079.44
2023-02-28T01:24:13.970Z,99078.47
2023-02-28T01:29:16.202Z,99073.88
2023-02-28T01:34:19.983Z,99069.28
2023-02-28T01:39:21.433Z,99069.09
2023-02-28T01:45:00.712Z,99066.47
2023-02-28T01:50:06.781Z,99063.00
2023-02-28T01:55:09.287Z,99065.56
2023-02-28T02:00:14.101Z,99060.28
2023-02-28T02:05:24.554Z,99058.69
2023-02-28T02:10:33.370Z,99053.50
2023-02-28T02:15:43.016Z,99058.75
2023-02-28T02:21:16.676Z,99053.03
2023-02-28T02:26:30.321Z,99051.59
2023-02-28T02:31:57.696Z,99055.44
2023-02-28T02:37:06.307Z,99045.16
2023-02-28T02:42:16.938Z,99051.25
2023-02-28T02:47:22.572Z,99050.13
2023-02-28T02:52:30.782Z,99054.41
2023-02-28T02:57:41.360Z,99046.53
2023-02-28T03:02:45.546Z,99056.22
2023-02-28T03:07:46.985Z,99055.38
2023-02-28T03:13:20.013Z,99058.84
2023-02-28T03:18:52.503Z,99051.06
2023-02-28T03:24:06.144Z,99057.41
2023-02-28T03:29:22.225Z,99048.03
2023-02-28T03:34:30.386Z,99044.81
2023-02-28T03:39:43.057Z,99043.31
2023-02-28T03:45:21.942Z,99049.78
2023-02-28T03:50:28.419Z,99049.28
2023-02-28T03:55:35.577Z,99050.50
2023-02-28T04:00:40.166Z,99053.41
2023-02-28T04:05:50.974Z,99063.97
2023-02-28T04:11:18.048Z,99064.44
2023-02-28T04:16:34.000Z,99076.06
2023-02-28T04:21:39.972Z,99066.63
2023-02-28T04:26:47.955Z,99073.94
2023-02-28T04:31:49.816Z,99077.00
2023-02-28T04:37:10.057Z,99079.13
2023-02-28T04:42:14.162Z,99071.75
2023-02-28T04:47:15.701Z,99076.50
2023-02-28T04:52:17.113Z,99084.78
2023-02-28T04:57:18.560Z,99082.09
2023-02-28T05:02:21.959Z,99083.59
2023-02-28T05:07:23.409Z,99093.91
2023-02-28T05:12:24.868Z,99088.22
2023-02-28T05:17:26.265Z,99093.78
2023-02-28T05:22:27.711Z,99097.50
2023-02-28T05:27:29.221Z,99101.97
2023-02-28T05:32:30.833Z,99105.69
2023-02-28T05:37:32.294Z,99097.97
2023-02-28T05:42:34.515Z,99106.00
2023-02-28T05:47:36.359Z,99103.38
2023-02-28T05:52:38.248Z,99102.63
2023-02-28T05:57:39.654Z,99111.56
2023-02-28T06:02:41.616Z,99106.31
2023-02-28T06:07:44.018Z,99119.25
2023-02-28T06:12:45.452Z,99118.69
2023-02-28T06:17:47.393Z,99118.69
2023-02-28T06:22:51.603Z,99122.88
2023-02-28T06:27:53.775Z,99129.00
2023-02-28T06:32:55.632Z,99135.16
2023-02-28T06:37:57.175Z,99142.09
2023-02-28T06:42:58.582Z,99143.84
2023-02-28T06:48:01.084Z,99155.91
2023-02-28T06:53:02.492Z,99162.69
2023-02-28T06:58:03.911Z,99172.00
2023-02-28T07:03:05.307Z,99171.59
2023-02-28T07:08:07.024Z,99179.94
2023-02-28T07:13:09.763Z,99170.22
2023-02-28T07:18:11.189Z,99182.22
2023-02-28T07:23:12.586Z,99190.00
2023-02-28T07:28:15.034Z,99177.94
2023-02-28T07:33:16.446Z,99189.50
2023-02-28T07:38:17.907Z,99185.41
2023-02-28T07:43:19.300Z,99181.66
2023-02-28T07:48:20.694Z,99181.88
2023-02-28T07:53:22.147Z,99186.38
2023-02-28T07:58:24.792Z,99184.88
2023-02-28T08:03:26.212Z,99186.56
2023-02-28T08:08:32.051Z,99187.31
2023-02-28T08:13:33.470Z,99185.84
2023-02-28T08:18:34.962Z,99189.84
2023-02-28T08:23:37.115Z,99183.81
2023-02-28T08:28:38.579Z,99187.38
2023-02-28T08:33:41.209Z,99200.22
2023-02-28T08:38:42.599Z,99196.69
2023-02-28T08:43:44.181Z,99202.41
2023-02-28T08:48:46.072Z,99200.38
2023-02-28T08:53:50.176Z,99202.53
2023-02-28T08:58:52.131Z,99200.38
2023-02-28T09:09:01.965Z,99196.47
2023-02-28T09:14:04.367Z,99203.03
2023-02-28T09:19:05.860Z,99201.34
2023-02-28T09:24:08.015Z,99198.06
2023-02-28T09:29:09.719Z,99202.38
2023-02-28T09:34:11.210Z,99193.34
2023-02-28T09:39:15.369Z,99192.88
2023-02-28T09:44:42.363Z,99194.03
2023-02-28T09:49:47.903Z,99186.69
2023-02-28T09:54:49.370Z,99192.69
2023-02-28T10:00:19.592Z,99181.72
2023-02-28T10:05:27.328Z,99189.19
2023-02-28T10:10:35.854Z,99195.25
2023-02-28T10:15:37.575Z,99176.88
2023-02-28T10:20:41.961Z,99177.75
2023-02-28T10:25:48.956Z,99191.78
2023-02-28T10:30:53.206Z,99192.50
2023-02-28T10:35:55.128Z,99189.81
2023-02-28T10:41:06.520Z,99192.19
2023-02-28T10:46:10.720Z,99184.84
2023-02-28T10:51:14.759Z,99186.91
2023-02-28T10:56:19.629Z,99183.72
2023-02-28T11:01:39.573Z,99183.13
2023-02-28T11:06:41.226Z,99179.91
2023-02-28T11:11:48.107Z,99169.09
2023-02-28T11:16:51.252Z,99164.78
2023-02-28T11:21:55.492Z,99156.88
2023-02-28T11:26:58.044Z,99167.16
2023-02-28T11:32:02.392Z,99157.00
2023-02-28T11:37:06.290Z,99153.50
2023-02-28T11:42:54.535Z,99146.94
2023-02-28T11:48:10.881Z,99136.69
2023-02-28T11:53:30.579Z,99148.53
2023-02-28T11:58:53.754Z,99137.16
2023-02-28T12:04:17.806Z,99139.66
2023-02-28T12:09:48.332Z,99132.59
2023-02-28T12:15:17.967Z,99133.97
2023-02-28T12:20:32.662Z,99130.38
2023-02-28T12:26:08.026Z,99131.25
2023-02-28T12:31:22.739Z,99130.28
2023-02-28T12:36:26.627Z,99131.88
2023-02-28T12:41:38.475Z,99126.38
2023-02-28T12:46:45.021Z,99127.22
2023-02-28T12:51:47.777Z,99119.19
2023-02-28T12:56:54.067Z,99124.25
2023-02-28T13:02:23.299Z,99117.28
2023-02-28T13:07:37.962Z,99112.13
2023-02-28T13:12:49.274Z,99115.69
2023-02-28T13:17:56.896Z,99110.56
2023-02-28T13:22:58.702Z,99109.09
2023-02-28T13:28:04.830Z,99108.81
2023-02-28T13:33:29.659Z,99097.06
2023-02-28T13:38:36.989Z,99105.44
2023-02-28T13:44:03.580Z,99098.88
2023-02-28T13:49:26.340Z,99106.31
2023-02-28T13:54:56.786Z,99094.69
2023-02-28T14:00:32.902Z,99091.09
2023-02-28T14:05:35.187Z,99088.13
2023-02-28T14:10:46.573Z,99092.34
2023-02-28T14:15:56.090Z,99087.88
2023-02-28T14:21:26.564Z,99076.59
2023-02-28T14:26:45.210Z,99074.31
2023-02-28T14:31:59.284Z,99077.50
2023-02-28T14:37:03.389Z,99073.50
2023-02-28T14:42:32.321Z,99065.81
2023-02-28T14:47:36.205Z,99066.38
2023-02-28T14:52:37.738Z,99073.34
2023-02-28T14:57:54.248Z,99075.88
2023-02-28T15:02:57.423Z,99080.34
2023-02-28T15:08:17.681Z,99079.09
2023-02-28T15:13:20.041Z,99080.78
2023-02-28T15:18:21.420Z,99087.72
2023-02-28T15:23:23.403Z,99074.53
2023-02-28T15:28:25.382Z,99073.16
2023-02-28T15:33:32.221Z,99078.84
2023-02-28T15:38:36.973Z,99074.84
2023-02-28T15:43:40.995Z,99077.97
2023-02-28T15:48:52.797Z,99080.06
2023-02-28T15:54:01.461Z,99085.00
2023-02-28T15:59:07.307Z,99093.31
2023-02-28T16:04:18.691Z,99080.44
2023-02-28T16:09:20.276Z,99086.97
2023-02-28T16:14:31.645Z,99087.16
2023-02-28T16:19:34.608Z,99078.72
2023-02-28T16:24:36.125Z,99091.97
2023-02-28T16:29:38.227Z,99079.19
2023-02-28T16:34:39.683Z,99082.34
2023-02-28T16:39:42.426Z,99082.72
2023-02-28T16:44:44.046Z,99084.06
2023-02-28T16:49:45.657Z,99090.84
2023-02-28T16:54:47.050Z,99088.78
2023-02-28T16:59:51.523Z,99083.94
2023-02-28T17:04:52.932Z,99092.22
2023-02-28T17:09:54.522Z,99096.28
2023-02-28T17:14:55.981Z,99099.34
2023-02-28T17:19:57.491Z,99100.56
2023-02-28T17:24:59.830Z,99100.97
2023-02-28T17:30:01.858Z,99108.31
2023-02-28T17:35:03.450Z,99109.50
2023-02-28T17:40:05.874Z,99111.56
2023-02-28T17:45:07.903Z,99107.53
2023-02-28T17:50:16.604Z,99098.22
2023-02-28T17:55:19.825Z,99093.34
2023-02-28T18:00:24.745Z,99097.34
2023-02-28T18:05:26.305Z,99091.63
2023-02-28T18:10:28.146Z,99077.06
2023-02-28T18:15:29.574Z,99088.78
2023-02-28T18:20:31.079Z,99092.63
2023-02-28T18:25:32.542Z,99081.59
2023-02-28T18:30:37.692Z,99096.63
2023-02-28T18:35:39.936Z,99085.47
2023-02-28T18:40:42.940Z,99082.91
2023-02-28T18:45:44.441Z,99086.50
2023-02-28T18:50:47.062Z,99086.66
2023-02-28T18:55:48.501Z,99091.31
2023-02-28T19:00:50.065Z,99081.09
2023-02-28T19:05:59.829Z,99081.16
2023-02-28T19:11:10.511Z,99075.34
2023-02-28T19:16:14.030Z,99080.09
2023-02-28T19:21:18.088Z,99083.94
2023-02-28T19:26:22.704Z,99079.78
2023-02-28T19:31:25.971Z,99080.03
2023-02-28T19:36:28.389Z,99082.91
2023-02-28T19:41:30.256Z,99083.84
2023-02-28T19:46:32.039Z,99077.50
2023-02-28T19:51:34.268Z,99082.56
2023-02-28T19:56:35.900Z,99083.50
2023-02-28T20:01:38.386Z,99089.72
2023-02-28T20:06:39.993Z,99093.41
2023-02-28T20:11:41.428Z,99094.72
2023-02-28T20:16:44.075Z,99095.88
2023-02-28T20:21:45.634Z,99104.78
2023-02-28T20:26:47.111Z,99098.84
2023-02-28T20:31:48.667Z,99098.19
2023-02-28T20:36:50.142Z,99100.19
2023-02-28T20:41:51.603Z,99102.81
2023-02-28T20:46:53.085Z,99096.00
2023-02-28T20:51:54.586Z,99090.03
2023-02-28T20:56:56.581Z,99106.16
2023-02-28T21:01:58.004Z,99103.41
2023-02-28T21:06:59.484Z,99105.91
2023-02-28T21:12:00.884Z,99106.72
2023-02-28T21:17:02.406Z,99104.59
2023-02-28T21:22:04.026Z,99105.53
2023-02-28T21:27:05.553Z,99101.81
2023-02-28T21:32:07.494Z,99096.56
2023-02-28T21:37:10.409Z,99100.22
2023-02-28T21:42:12.906Z,99100.44
2023-02-28T21:47:14.350Z,99111.94
2023-02-28T21:52:15.795Z,99104.31
2023-02-28T21:57:17.310Z,99109.72
2023-02-28T22:02:18.839Z,99108.94
2023-02-28T22:07:20.316Z,99100.34
2023-02-28T22:12:21.778Z,99097.16
2023-02-28T22:17:23.181Z,99088.84
2023-02-28T22:22:25.834Z,99098.50
2023-02-28T22:27:27.281Z,99096.94
2023-02-28T22:32:28.740Z,99103.25
2023-02-28T22:37:30.180Z,99094.88
2023-02-28T22:42:34.866Z,99088.00
2023-02-28T22:47:36.258Z,99098.59
2023-02-28T22:52:40.520Z,99095.25
2023-02-28T22:57:42.102Z,99098.94
2023-02-28T23:02:44.785Z,99107.13
2023-02-28T23:07:46.698Z,99092.53
2023-02-28T23:12:51.123Z,99099.56
2023-02-28T23:17:52.681Z,99101.44
2023-02-28T23:22:54.470Z,99098.81
2023-02-28T23:27:56.485Z,99104.03
2023-02-28T23:32:58.048Z,99110.97
2023-02-28T23:37:59.702Z,99104.03
2023-02-28T23:43:01.788Z,99112.09
2023-02-28T23:48:04.071Z,99103.56
2023-02-28T23:53:05.644Z,99127.34
2023-02-28T23:58:07.184Z,99110.78
